sensor_id;sensor_type;location;lat;lon;timestamp;P1;durP1;ratioP1;P2;durP2;ratioP2
23768;SDS011;12064;50.890;5.424;2022-09-09T00:04:33;0.20;;;0.20;;
23768;SDS011;12064;50.890;5.424;2022-09-09T00:13:31;0.20;;;0.20;;
23768;SDS011;12064;50.890;5.424;2022-09-09T00:22:23;0.40;;;0.30;;
23768;SDS011;12064;50.890;5.424;2022-09-09T00:31:19;0.30;;;0.30;;
23768;SDS011;12064;50.890;5.424;2022-09-09T00:58:31;0.32;;;0.30;;
23768;SDS011;12064;50.890;5.424;2022-09-09T01:07:24;0.50;;;0.30;;
23768;SDS011;12064;50.890;5.424;2022-09-09T01:16:20;0.32;;;0.30;;
23768;SDS011;12064;50.890;5.424;2022-09-09T01:34:39;0.43;;;0.30;;
23768;SDS011;12064;50.890;5.424;2022-09-09T01:43:32;0.50;;;0.40;;
23768;SDS011;12064;50.890;5.424;2022-09-09T01:52:28;0.65;;;0.50;;
23768;SDS011;12064;50.890;5.424;2022-09-09T02:19:47;0.70;;;0.30;;
23768;SDS011;12064;50.890;5.424;2022-09-09T02:28:50;0.60;;;0.30;;
23768;SDS011;12064;50.890;5.424;2022-09-09T02:37:43;0.30;;;0.30;;
23768;SDS011;12064;50.890;5.424;2022-09-09T03:04:56;0.40;;;0.40;;
23768;SDS011;12064;50.890;5.424;2022-09-09T03:13:46;0.30;;;0.30;;
23768;SDS011;12064;50.890;5.424;2022-09-09T03:22:39;0.30;;;0.30;;
23768;SDS011;12064;50.890;5.424;2022-09-09T03:31:37;0.50;;;0.40;;
23768;SDS011;12064;50.890;5.424;2022-09-09T03:40:28;0.30;;;0.20;;
23768;SDS011;12064;50.890;5.424;2022-09-09T03:49:19;0.30;;;0.30;;
23768;SDS011;12064;50.890;5.424;2022-09-09T03:58:16;0.30;;;0.30;;
23768;SDS011;12064;50.890;5.424;2022-09-09T04:07:08;0.40;;;0.20;;
23768;SDS011;12064;50.890;5.424;2022-09-09T04:16:05;1.00;;;0.30;;
23768;SDS011;12064;50.890;5.424;2022-09-09T04:24:57;0.30;;;0.20;;
23768;SDS011;12064;50.890;5.424;2022-09-09T04:33:48;0.30;;;0.20;;
23768;SDS011;12064;50.890;5.424;2022-09-09T04:42:42;0.35;;;0.30;;
23768;SDS011;12064;50.890;5.424;2022-09-09T04:51:33;0.60;;;0.20;;
23768;SDS011;12064;50.890;5.424;2022-09-09T05:00:39;0.20;;;0.20;;
23768;SDS011;12064;50.890;5.424;2022-09-09T05:09:32;0.30;;;0.30;;
23768;SDS011;12064;50.890;5.424;2022-09-09T05:18:25;0.30;;;0.20;;
23768;SDS011;12064;50.890;5.424;2022-09-09T05:27:19;3.33;;;0.90;;
23768;SDS011;12064;50.890;5.424;2022-09-09T05:36:10;3.92;;;0.93;;
23768;SDS011;12064;50.890;5.424;2022-09-09T05:45:03;3.72;;;1.15;;
23768;SDS011;12064;50.890;5.424;2022-09-09T05:53:54;4.53;;;1.48;;
23768;SDS011;12064;50.890;5.424;2022-09-09T06:02:51;5.63;;;1.30;;
23768;SDS011;12064;50.890;5.424;2022-09-09T06:11:47;3.40;;;1.23;;
23768;SDS011;12064;50.890;5.424;2022-09-09T06:20:38;6.63;;;1.40;;
23768;SDS011;12064;50.890;5.424;2022-09-09T06:29:29;6.33;;;1.77;;
23768;SDS011;12064;50.890;5.424;2022-09-09T06:38:19;6.35;;;1.50;;
23768;SDS011;12064;50.890;5.424;2022-09-09T06:56:31;5.50;;;1.45;;
23768;SDS011;12064;50.890;5.424;2022-09-09T07:05:31;5.07;;;1.20;;
23768;SDS011;12064;50.890;5.424;2022-09-09T07:14:22;6.45;;;1.50;;
23768;SDS011;12064;50.890;5.424;2022-09-09T07:23:13;3.55;;;1.20;;
23768;SDS011;12064;50.890;5.424;2022-09-09T07:32:04;5.40;;;1.42;;
23768;SDS011;12064;50.890;5.424;2022-09-09T07:41:02;7.25;;;1.50;;
23768;SDS011;12064;50.890;5.424;2022-09-09T07:50:02;6.20;;;1.58;;
23768;SDS011;12064;50.890;5.424;2022-09-09T07:59:00;5.60;;;1.15;;
23768;SDS011;12064;50.890;5.424;2022-09-09T08:07:54;4.28;;;1.10;;
23768;SDS011;12064;50.890;5.424;2022-09-09T08:16:46;8.48;;;1.30;;
23768;SDS011;12064;50.890;5.424;2022-09-09T08:25:37;8.10;;;1.40;;
23768;SDS011;12064;50.890;5.424;2022-09-09T08:34:28;4.33;;;1.27;;
23768;SDS011;12064;50.890;5.424;2022-09-09T08:43:21;6.63;;;1.50;;
23768;SDS011;12064;50.890;5.424;2022-09-09T08:52:22;6.53;;;1.63;;
23768;SDS011;12064;50.890;5.424;2022-09-09T09:19:45;5.05;;;1.70;;
23768;SDS011;12064;50.890;5.424;2022-09-09T09:46:31;3.80;;;1.20;;
23768;SDS011;12064;50.890;5.424;2022-09-09T09:55:22;3.15;;;0.90;;
23768;SDS011;12064;50.890;5.424;2022-09-09T10:04:27;2.70;;;1.00;;
23768;SDS011;12064;50.890;5.424;2022-09-09T10:13:20;2.92;;;0.82;;
23768;SDS011;12064;50.890;5.424;2022-09-09T10:22:26;3.28;;;1.00;;
23768;SDS011;12064;50.890;5.424;2022-09-09T11:07:59;3.53;;;1.00;;
23768;SDS011;12064;50.890;5.424;2022-09-09T11:17:06;3.55;;;1.00;;
23768;SDS011;12064;50.890;5.424;2022-09-09T11:26:36;4.38;;;1.10;;
23768;SDS011;12064;50.890;5.424;2022-09-09T11:35:48;4.75;;;1.20;;
23768;SDS011;12064;50.890;5.424;2022-09-09T11:44:41;2.63;;;1.10;;
23768;SDS011;12064;50.890;5.424;2022-09-09T11:53:32;3.35;;;0.95;;
23768;SDS011;12064;50.890;5.424;2022-09-09T12:12:04;5.10;;;1.00;;
23768;SDS011;12064;50.890;5.424;2022-09-09T12:30:44;7.60;;;1.45;;
23768;SDS011;12064;50.890;5.424;2022-09-09T12:39:58;3.20;;;1.10;;
23768;SDS011;12064;50.890;5.424;2022-09-09T12:48:52;3.47;;;1.20;;
23768;SDS011;12064;50.890;5.424;2022-09-09T13:07:05;3.78;;;1.10;;
23768;SDS011;12064;50.890;5.424;2022-09-09T13:15:57;2.53;;;1.02;;
23768;SDS011;12064;50.890;5.424;2022-09-09T13:33:56;3.28;;;0.90;;
23768;SDS011;12064;50.890;5.424;2022-09-09T13:42:50;2.47;;;1.02;;
23768;SDS011;12064;50.890;5.424;2022-09-09T14:09:43;3.05;;;1.13;;
23768;SDS011;12064;50.890;5.424;2022-09-09T14:18:51;2.53;;;0.98;;
23768;SDS011;12064;50.890;5.424;2022-09-09T14:36:40;2.92;;;0.95;;
23768;SDS011;12064;50.890;5.424;2022-09-09T14:45:31;2.55;;;1.00;;
23768;SDS011;12064;50.890;5.424;2022-09-09T14:54:26;3.88;;;1.00;;
23768;SDS011;12064;50.890;5.424;2022-09-09T15:03:20;2.90;;;0.90;;
23768;SDS011;12064;50.890;5.424;2022-09-09T15:12:13;3.45;;;1.17;;
23768;SDS011;12064;50.890;5.424;2022-09-09T15:21:04;2.53;;;0.90;;
23768;SDS011;12064;50.890;5.424;2022-09-09T15:29:55;2.17;;;0.88;;
23768;SDS011;12064;50.890;5.424;2022-09-09T15:38:46;3.90;;;1.20;;
23768;SDS011;12064;50.890;5.424;2022-09-09T15:47:39;5.82;;;1.95;;
23768;SDS011;12064;50.890;5.424;2022-09-09T15:56:30;4.00;;;2.17;;
23768;SDS011;12064;50.890;5.424;2022-09-09T16:05:22;4.57;;;1.52;;
23768;SDS011;12064;50.890;5.424;2022-09-09T16:14:15;4.20;;;1.10;;
23768;SDS011;12064;50.890;5.424;2022-09-09T16:23:06;3.40;;;1.37;;
23768;SDS011;12064;50.890;5.424;2022-09-09T16:31:56;4.20;;;1.60;;
23768;SDS011;12064;50.890;5.424;2022-09-09T16:40:51;3.42;;;1.10;;
23768;SDS011;12064;50.890;5.424;2022-09-09T16:49:50;2.35;;;1.00;;
23768;SDS011;12064;50.890;5.424;2022-09-09T16:58:43;2.70;;;1.00;;
23768;SDS011;12064;50.890;5.424;2022-09-09T17:07:35;2.47;;;1.00;;
23768;SDS011;12064;50.890;5.424;2022-09-09T17:25:21;3.42;;;0.90;;
23768;SDS011;12064;50.890;5.424;2022-09-09T17:34:16;2.35;;;0.88;;
23768;SDS011;12064;50.890;5.424;2022-09-09T17:43:06;4.60;;;0.80;;
23768;SDS011;12064;50.890;5.424;2022-09-09T17:52:00;3.00;;;1.00;;
23768;SDS011;12064;50.890;5.424;2022-09-09T18:10:06;3.33;;;0.90;;
23768;SDS011;12064;50.890;5.424;2022-09-09T18:18:57;2.75;;;1.05;;
23768;SDS011;12064;50.890;5.424;2022-09-09T18:27:48;2.50;;;0.98;;
23768;SDS011;12064;50.890;5.424;2022-09-09T18:36:44;2.35;;;0.68;;
23768;SDS011;12064;50.890;5.424;2022-09-09T18:45:36;4.65;;;1.25;;
23768;SDS011;12064;50.890;5.424;2022-09-09T18:54:27;2.55;;;0.98;;
23768;SDS011;12064;50.890;5.424;2022-09-09T19:03:20;1.65;;;0.80;;
23768;SDS011;12064;50.890;5.424;2022-09-09T19:12:11;2.58;;;0.90;;
23768;SDS011;12064;50.890;5.424;2022-09-09T19:21:09;1.80;;;0.80;;
23768;SDS011;12064;50.890;5.424;2022-09-09T19:30:07;2.78;;;0.85;;
23768;SDS011;12064;50.890;5.424;2022-09-09T19:38:59;1.67;;;0.77;;
23768;SDS011;12064;50.890;5.424;2022-09-09T19:47:52;2.72;;;0.88;;
23768;SDS011;12064;50.890;5.424;2022-09-09T19:56:44;0.93;;;0.70;;
23768;SDS011;12064;50.890;5.424;2022-09-09T20:05:35;1.42;;;0.80;;
23768;SDS011;12064;50.890;5.424;2022-09-09T20:14:26;1.40;;;0.68;;
23768;SDS011;12064;50.890;5.424;2022-09-09T20:23:16;1.37;;;0.77;;
23768;SDS011;12064;50.890;5.424;2022-09-09T20:32:07;1.45;;;0.80;;
23768;SDS011;12064;50.890;5.424;2022-09-09T20:41:02;1.67;;;0.90;;
23768;SDS011;12064;50.890;5.424;2022-09-09T20:49:53;2.65;;;0.80;;
23768;SDS011;12064;50.890;5.424;2022-09-09T20:58:44;1.38;;;0.95;;
23768;SDS011;12064;50.890;5.424;2022-09-09T21:07:37;1.45;;;0.98;;
23768;SDS011;12064;50.890;5.424;2022-09-09T21:16:28;2.60;;;0.57;;
23768;SDS011;12064;50.890;5.424;2022-09-09T21:25:19;2.08;;;0.70;;
23768;SDS011;12064;50.890;5.424;2022-09-09T21:34:09;1.20;;;0.70;;
23768;SDS011;12064;50.890;5.424;2022-09-09T21:43:02;3.30;;;0.70;;
23768;SDS011;12064;50.890;5.424;2022-09-09T21:51:54;1.30;;;0.60;;
23768;SDS011;12064;50.890;5.424;2022-09-09T22:00:47;1.30;;;0.70;;
23768;SDS011;12064;50.890;5.424;2022-09-09T22:09:37;0.80;;;0.60;;
23768;SDS011;12064;50.890;5.424;2022-09-09T22:18:28;0.82;;;0.70;;
23768;SDS011;12064;50.890;5.424;2022-09-09T22:27:21;0.77;;;0.50;;
23768;SDS011;12064;50.890;5.424;2022-09-09T22:36:14;1.45;;;0.60;;
23768;SDS011;12064;50.890;5.424;2022-09-09T22:45:05;0.68;;;0.55;;
23768;SDS011;12064;50.890;5.424;2022-09-09T22:53:59;0.63;;;0.52;;
23768;SDS011;12064;50.890;5.424;2022-09-09T23:02:50;0.63;;;0.63;;
23768;SDS011;12064;50.890;5.424;2022-09-09T23:11:40;0.90;;;0.63;;
23768;SDS011;12064;50.890;5.424;2022-09-09T23:20:35;0.82;;;0.52;;
23768;SDS011;12064;50.890;5.424;2022-09-09T23:29:26;1.35;;;0.50;;
23768;SDS011;12064;50.890;5.424;2022-09-09T23:38:17;0.63;;;0.60;;
23768;SDS011;12064;50.890;5.424;2022-09-09T23:47:08;0.83;;;0.60;;
23768;SDS011;12064;50.890;5.424;2022-09-09T23:56:02;1.35;;;0.75;;
